Terminal Aerodrome Forecast
Issued by NWS

Home | Current Version | Previous Version | Text Only | Print | Product List | Glossary On
Versions: 1 2 3 4 5 6 7 8 9 10 11 12 13 14 15 16 17 18 19 20 21
000
FTUS43 KDLH 291120
TAFHYR
TAF
KHYR 291120Z 2912/3012 20008KT P6SM -RA VCTS SCT020 BKN040CB OVC070
     FM291400 18010G16KT P6SM SCT040 BKN100
     FM292000 21011KT P6SM VCTS BKN050CB BKN150=

USA.gov is the U.S. government's official web portal to all federal, state and local government web resources and services.